Time;durP1;ratioP1;P1;durP2;ratioP2;P2;SDS_P1;SDS_P2;PMS_P1;PMS_P2;Temp;Humidity;BMP_temperature;BMP_pressure;BME280_temperature;BME280_humidity;BME280_pressure;Samples;Min_cycle;Max_cycle;Signal;HPM_P1;HPM_P2
2022/09/21 00:02:07;;;;;;;5.33;3.10;;;;;;;5.98;100.00;97417.88;10327641;28;20289;-73
2022/09/21 00:07:07;;;;;;;3.97;3.30;;;;;;;6.14;100.00;97416.75;10326380;28;20300;-73
2022/09/21 00:12:08;;;;;;;3.60;3.20;;;;;;;6.24;100.00;97421.19;10327874;28;20233;-73
2022/09/21 00:17:08;;;;;;;4.07;3.10;;;;;;;6.24;100.00;97412.56;10327328;28;20202;-73
2022/09/21 00:22:09;;;;;;;5.03;3.50;;;;;;;6.20;100.00;97413.72;10327867;28;20202;-73
2022/09/21 00:27:10;;;;;;;5.20;3.40;;;;;;;6.14;100.00;97416.75;10327182;28;20225;-73
2022/09/21 00:32:10;;;;;;;6.67;3.80;;;;;;;6.22;100.00;97414.44;10327079;28;20251;-73
2022/09/21 00:37:10;;;;;;;5.37;3.87;;;;;;;6.22;100.00;97417.06;10327249;28;20701;-73
2022/09/21 00:42:24;;;;;;;8.23;4.27;;;;;;;6.30;100.00;97419.09;10327016;28;20657;-72
2022/09/21 00:47:33;;;;;;;6.27;3.77;;;;;;;6.28;100.00;97428.75;10326133;28;20253;-72
2022/09/21 00:52:39;;;;;;;7.50;4.13;;;;;;;6.22;100.00;97430.88;10336402;28;20261;-72
2022/09/21 00:57:40;;;;;;;5.73;4.00;;;;;;;6.27;100.00;97425.34;10325484;28;20178;-72
2022/09/21 01:02:40;;;;;;;5.50;4.17;;;;;;;6.22;100.00;97420.47;10324912;28;20238;-72
2022/09/21 01:07:44;;;;;;;8.90;4.30;;;;;;;6.15;100.00;97426.25;10333633;28;20218;-72
2022/09/21 01:13:04;;;;;;;6.50;4.90;;;;;;;6.24;100.00;97423.78;10316951;28;20573;-72
2022/09/21 01:18:19;;;;;;;8.07;4.80;;;;;;;6.20;100.00;97424.97;10341688;28;20299;-72
2022/09/21 01:23:48;;;;;;;10.60;4.53;;;;;;;6.22;100.00;97430.06;10356512;28;20204;-72
2022/09/21 01:29:02;;;;;;;7.47;4.40;;;;;;;6.19;100.00;97425.91;10357337;28;20306;-72
2022/09/21 01:34:08;;;;;;;7.57;4.93;;;;;;;6.05;100.00;97441.69;10374287;28;20546;-72
2022/09/21 01:39:11;;;;;;;7.50;4.73;;;;;;;6.11;100.00;97443.00;10357089;28;20197;-72
2022/09/21 01:44:16;;;;;;;11.37;4.60;;;;;;;6.10;100.00;97451.75;10355511;28;20248;-72
2022/09/21 01:49:20;;;;;;;9.13;5.17;;;;;;;6.05;100.00;97450.31;10356064;28;20654;-72
2022/09/21 01:54:24;;;;;;;8.70;4.97;;;;;;;6.18;100.00;97455.44;10355849;28;20296;-72
2022/09/21 01:59:29;;;;;;;7.10;4.47;;;;;;;6.11;100.00;97458.59;10372912;28;20233;-72
2022/09/21 02:04:29;;;;;;;10.03;5.57;;;;;;;6.13;100.00;97452.34;10355949;28;20284;-73
2022/09/21 02:09:30;;;;;;;6.47;5.20;;;;;;;6.15;100.00;97453.06;10373144;28;20278;-72
2022/09/21 02:14:32;;;;;;;8.37;5.10;;;;;;;6.17;100.00;97442.56;10354780;28;20559;-72
2022/09/21 02:20:18;;;;;;;8.13;5.17;;;;;;;6.17;100.00;97458.16;10372961;28;20189;-72
2022/09/21 02:25:31;;;;;;;7.97;5.37;;;;;;;6.09;100.00;97455.28;10368757;28;20248;-72
2022/09/21 02:30:33;;;;;;;11.07;5.57;;;;;;;6.12;100.00;97452.47;10371897;28;20189;-72
2022/09/21 02:35:42;;;;;;;9.73;5.63;;;;;;;6.10;100.00;97446.56;10354652;28;20213;-72
2022/09/21 02:40:52;;;;;;;11.03;5.37;;;;;;;5.98;100.00;97443.88;10354232;28;20193;-72
2022/09/21 02:45:59;;;;;;;8.93;5.13;;;;;;;5.87;100.00;97449.00;10370490;28;20221;-72
2022/09/21 02:51:05;;;;;;;8.53;5.93;;;;;;;5.57;100.00;97452.78;10353649;28;20197;-72
2022/09/21 02:56:06;;;;;;;11.30;6.43;;;;;;;5.66;100.00;97457.34;10353620;28;20192;-72
2022/09/21 03:01:09;;;;;;;7.37;4.93;;;;;;;5.85;100.00;97469.06;10353200;28;20728;-72
2022/09/21 03:06:10;;;;;;;7.97;5.20;;;;;;;5.92;100.00;97474.66;10364342;28;20226;-72
2022/09/21 03:11:10;;;;;;;8.73;5.83;;;;;;;5.96;100.00;97479.53;10362684;28;20185;-72
2022/09/21 03:16:11;;;;;;;11.70;5.83;;;;;;;5.96;100.00;97484.75;10362003;28;20193;-72
2022/09/21 03:21:12;;;;;;;8.27;5.60;;;;;;;6.06;100.00;97488.41;10361819;28;20193;-72
2022/09/21 03:26:12;;;;;;;10.37;5.93;;;;;;;6.13;100.00;97488.78;10343148;28;20221;-72
2022/09/21 03:31:12;;;;;;;10.17;6.83;;;;;;;6.17;100.00;97481.56;10361444;28;20251;-72
2022/09/21 03:36:13;;;;;;;10.57;6.93;;;;;;;6.13;100.00;97486.19;10362800;28;20205;-72
2022/09/21 03:41:14;;;;;;;11.13;7.27;;;;;;;6.24;100.00;97482.81;10362069;28;20193;-72
2022/09/21 03:46:15;;;;;;;19.13;8.57;;;;;;;6.19;100.00;97490.94;10360507;28;20304;-73
2022/09/21 03:51:15;;;;;;;12.53;8.60;;;;;;;6.25;100.00;97480.09;10356242;28;20208;-72
2022/09/21 03:56:16;;;;;;;18.97;10.07;;;;;;;6.34;100.00;97485.56;10361728;28;20197;-72
2022/09/21 04:01:16;;;;;;;17.63;10.83;;;;;;;6.43;100.00;97472.72;10362079;28;20241;-73
2022/09/21 04:06:17;;;;;;;12.83;8.37;;;;;;;6.53;100.00;97475.47;10368521;28;20224;-72
2022/09/21 04:11:20;;;;;;;11.10;8.43;;;;;;;6.53;100.00;97474.66;10369444;28;20189;-72
2022/09/21 04:16:24;;;;;;;15.67;9.13;;;;;;;6.45;100.00;97472.63;10372412;28;20194;-73
2022/09/21 04:21:25;;;;;;;15.47;9.30;;;;;;;6.33;100.00;97470.91;10371264;28;20189;-72
2022/09/21 04:26:27;;;;;;;18.67;10.00;;;;;;;6.37;100.00;97469.72;10373845;28;20768;-73
2022/09/21 04:31:28;;;;;;;14.23;9.80;;;;;;;6.48;100.00;97474.16;10350275;28;20201;-72
2022/09/21 04:36:31;;;;;;;21.83;11.77;;;;;;;6.19;100.00;97466.72;10368417;28;20677;-73
2022/09/21 04:41:31;;;;;;;14.83;10.73;;;;;;;6.22;100.00;97476.91;10334528;28;20655;-72
2022/09/21 04:46:32;;;;;;;17.83;11.17;;;;;;;6.21;100.00;97483.03;10367351;28;20221;-73
2022/09/21 04:51:33;;;;;;;20.50;11.63;;;;;;;6.13;100.00;97482.75;10368261;28;20197;-73
2022/09/21 04:56:33;;;;;;;22.57;11.83;;;;;;;6.09;100.00;97479.53;10368387;28;20193;-73
2022/09/21 05:01:34;;;;;;;20.93;13.40;;;;;;;5.87;100.00;97482.78;10367719;28;20713;-72
2022/09/21 05:06:34;;;;;;;23.67;14.53;;;;;;;5.82;100.00;97497.88;10375792;28;20689;-72
2022/09/21 05:11:35;;;;;;;31.53;17.07;;;;;;;6.01;100.00;97505.25;10383539;28;20280;-72
2022/09/21 05:16:35;;;;;;;26.07;15.30;;;;;;;6.02;100.00;97514.72;10385727;28;20271;-72
2022/09/21 05:21:36;;;;;;;22.20;14.83;;;;;;;6.21;100.00;97516.84;10385384;28;20232;-72
2022/09/21 05:26:36;;;;;;;19.83;14.67;;;;;;;6.43;100.00;97516.13;10383248;28;20642;-72
2022/09/21 05:31:44;;;;;;;29.93;15.77;;;;;;;6.34;100.00;97511.59;10380206;28;20193;-72
2022/09/21 05:36:58;;;;;;;25.33;15.20;;;;;;;6.34;100.00;97509.84;10359822;28;20241;-72
2022/09/21 05:41:58;;;;;;;21.73;15.20;;;;;;;6.44;100.00;97515.19;10347811;28;20202;-72
2022/09/21 05:47:23;;;;;;;23.43;16.10;;;;;;;6.52;100.00;97517.25;10365877;28;20221;-72
2022/09/21 05:52:39;;;;;;;28.67;19.73;;;;;;;6.56;100.00;97521.31;10354344;28;20634;-72
2022/09/21 05:58:05;;;;;;;51.97;35.33;;;;;;;6.54;100.00;97511.00;10374126;28;20189;-72
2022/09/21 06:03:27;;;;;;;30.80;18.77;;;;;;;6.59;100.00;97511.47;10355314;28;20308;-72
2022/09/21 06:08:27;;;;;;;23.07;16.53;;;;;;;6.80;100.00;97505.66;10373548;28;20197;-73
2022/09/21 06:13:28;;;;;;;29.70;17.73;;;;;;;6.81;100.00;97509.09;10372884;28;20189;-72
2022/09/21 06:18:28;;;;;;;27.23;18.97;;;;;;;6.87;100.00;97503.41;10373119;28;20805;-72
2022/09/21 06:23:29;;;;;;;29.07;18.93;;;;;;;7.00;100.00;97498.97;10372222;28;20541;-72
2022/09/21 06:28:29;;;;;;;22.80;17.20;;;;;;;7.22;100.00;97507.78;10372508;28;20651;-72
2022/09/21 06:33:30;;;;;;;25.37;18.00;;;;;;;7.02;100.00;97504.88;10372314;28;20189;-72
2022/09/21 06:38:30;;;;;;;24.40;17.30;;;;;;;7.20;100.00;97507.91;10371738;28;20216;-72
2022/09/21 06:43:31;;;;;;;27.23;16.67;;;;;;;7.36;100.00;97498.91;10371266;28;20185;-72
2022/09/21 06:48:32;;;;;;;33.73;19.30;;;;;;;7.03;100.00;97493.53;10371887;28;20256;-72
2022/09/21 06:53:33;;;;;;;27.90;17.50;;;;;;;7.41;100.00;97491.56;10371091;28;20224;-72
2022/09/21 06:58:34;;;;;;;26.73;16.47;;;;;;;7.73;100.00;97491.69;10371491;28;20466;-72
2022/09/21 07:03:34;;;;;;;28.20;18.13;;;;;;;7.94;100.00;97483.13;10369066;28;20200;-72
2022/09/21 07:08:35;;;;;;;24.43;15.40;;;;;;;8.15;100.00;97491.06;10371262;28;20201;-72
2022/09/21 07:13:35;;;;;;;20.53;15.07;;;;;;;7.85;100.00;97484.69;10370515;28;20193;-72
2022/09/21 07:18:37;;;;;;;23.67;15.30;;;;;;;7.96;100.00;97487.31;10369834;28;20273;-71
2022/09/21 07:23:38;;;;;;;21.57;16.60;;;;;;;8.27;100.00;97495.31;10330658;28;20286;-73
2022/09/21 07:28:38;;;;;;;18.43;13.53;;;;;;;8.66;100.00;97500.06;10330124;28;20198;-72
2022/09/21 07:33:40;;;;;;;21.00;13.57;;;;;;;8.45;100.00;97492.19;10328896;28;20540;-73
2022/09/21 07:38:42;;;;;;;19.53;12.87;;;;;;;8.87;100.00;97498.31;10329484;28;20214;-73
2022/09/21 07:43:42;;;;;;;18.73;12.47;;;;;;;9.47;100.00;97495.09;10328650;28;20224;-73
2022/09/21 07:48:42;;;;;;;16.20;11.20;;;;;;;9.29;100.00;97489.63;10329086;28;20650;-73
2022/09/21 07:53:43;;;;;;;15.17;11.67;;;;;;;8.97;100.00;97492.31;10328576;28;20737;-73
2022/09/21 08:04:04;;;;;;;16.33;11.53;;;;;;;9.01;100.00;97507.63;10328018;28;20257;-73
2022/09/21 08:09:04;;;;;;;13.33;10.43;;;;;;;9.80;100.00;97501.00;10328196;28;20290;-73
2022/09/21 08:14:05;;;;;;;14.77;10.10;;;;;;;10.12;100.00;97482.53;10327421;28;20209;-73
2022/09/21 08:19:06;;;;;;;16.93;10.17;;;;;;;10.48;100.00;97489.91;10310439;28;20740;-73
2022/09/21 08:24:06;;;;;;;13.80;9.13;;;;;;;10.71;100.00;97493.91;10327307;28;20693;-73
2022/09/21 08:29:07;;;;;;;11.60;8.00;;;;;;;11.15;100.00;97482.13;10328219;28;20197;-71
2022/09/21 08:34:07;;;;;;;11.80;7.78;;;;;;;11.77;100.00;97485.94;10332384;28;20186;-73
2022/09/21 08:39:08;;;;;;;10.02;7.10;;;;;;;11.52;100.00;97465.63;10327781;28;20214;-72
2022/09/21 08:44:19;;;;;;;10.20;7.95;;;;;;;10.61;100.00;97506.22;10326532;28;20229;-72
2022/09/21 08:49:23;;;;;;;13.70;7.20;;;;;;;11.65;100.00;97487.13;10327259;28;20542;-72
2022/09/21 08:54:48;;;;;;;9.98;6.85;;;;;;;12.74;100.00;97480.28;10327197;28;20178;-72
2022/09/21 08:59:48;;;;;;;7.95;6.85;;;;;;;12.44;100.00;97475.25;10326912;28;20234;-72
2022/09/21 09:05:15;;;;;;;9.73;6.75;;;;;;;12.96;100.00;97479.00;10348153;28;20283;-73
2022/09/21 09:10:27;;;;;;;6.38;4.95;;;;;;;13.65;97.72;97453.63;10366652;28;20728;-72
2022/09/21 09:15:57;;;;;;;5.97;4.07;;;;;;;14.48;91.03;97432.78;10367325;28;20281;-73
2022/09/21 09:21:02;;;;;;;6.15;4.38;;;;;;;14.05;87.94;97417.06;10336328;28;20237;-73
2022/09/21 09:26:09;;;;;;;7.95;4.68;;;;;;;13.78;90.00;97441.81;10370739;28;20681;-72
2022/09/21 09:31:15;;;;;;;8.52;4.03;;;;;;;13.06;97.62;97478.91;10374436;28;20208;-72
2022/09/21 09:36:16;;;;;;;5.88;3.50;;;;;;;13.30;95.89;97463.28;10357082;28;20689;-72
2022/09/21 09:41:32;;;;;;;6.05;2.50;;;;;;;13.87;92.31;97447.00;10372014;28;20200;-72
2022/09/21 09:47:08;;;;;;;5.68;3.08;;;;;;;13.96;91.25;97449.63;10356729;28;20215;-73
2022/09/21 09:52:11;;;;;;;5.47;2.78;;;;;;;13.72;91.66;97454.66;10374253;28;20213;-72
2022/09/21 09:57:11;;;;;;;4.43;2.22;;;;;;;13.78;88.83;97434.75;10374308;28;20189;-72
2022/09/21 10:02:26;;;;;;;2.72;1.88;;;;;;;13.71;89.20;97434.56;10373203;28;20232;-72
2022/09/21 10:07:46;;;;;;;3.33;1.27;;;;;;;12.62;92.76;97469.19;10373785;28;20296;-72
2022/09/21 10:12:47;;;;;;;2.90;1.83;;;;;;;12.28;97.84;97488.22;10372918;28;20190;-72
2022/09/21 10:18:08;;;;;;;3.90;1.38;;;;;;;12.58;99.06;97481.78;10355818;28;20276;-72
2022/09/21 10:23:11;;;;;;;5.28;2.38;;;;;;;13.91;94.21;97456.19;10355322;28;20223;-72
2022/09/21 10:28:12;;;;;;;3.72;2.00;;;;;;;14.76;84.99;97389.31;10355379;28;20303;-72
2022/09/21 10:33:19;;;;;;;2.08;1.60;;;;;;;14.58;85.02;97422.91;10354880;28;20238;-72
2022/09/21 10:38:26;;;;;;;6.00;1.15;;;;;;;14.13;83.45;97400.44;10372439;28;20677;-72
2022/09/21 10:43:34;;;;;;;2.28;1.52;;;;;;;13.98;86.63;97430.06;10371749;28;20189;-72
2022/09/21 10:48:35;;;;;;;3.75;0.95;;;;;;;14.74;83.58;97417.66;10371971;28;20197;-72
2022/09/21 10:53:36;;;;;;;3.80;1.23;;;;;;;15.08;81.95;97406.06;10355214;28;20185;-72
2022/09/21 10:58:36;;;;;;;2.53;1.23;;;;;;;15.88;78.10;97370.03;10371712;28;20237;-72
2022/09/21 11:04:02;;;;;;;3.42;1.15;;;;;;;16.41;75.99;97360.38;10370911;28;20186;-72
2022/09/21 11:09:06;;;;;;;1.33;0.88;;;;;;;16.14;73.84;97348.53;10353812;28;20197;-73
2022/09/21 11:14:34;;;;;;;3.28;1.00;;;;;;;14.90;79.94;97406.28;10353069;28;20189;-72
2022/09/21 11:19:55;;;;;;;3.05;1.10;;;;;;;15.36;80.74;97410.13;10353593;28;20741;-73
2022/09/21 11:25:31;;;;;;;2.85;1.40;;;;;;;17.63;68.55;97285.16;10369851;28;20284;-73
2022/09/21 11:30:56;;;;;;;1.00;0.85;;;;;;;17.58;66.57;97273.47;10301706;28;20237;-73
2022/09/21 11:36:22;;;;;;;4.00;1.10;;;;;;;17.76;63.76;97255.31;10370008;28;20251;-73
2022/09/21 11:41:40;;;;;;;3.17;0.90;;;;;;;17.75;63.35;97250.19;10369855;28;20628;-72
2022/09/21 11:46:56;;;;;;;2.83;1.15;;;;;;;17.58;65.75;97284.06;10368959;28;20221;-73
2022/09/21 11:52:06;;;;;;;0.88;0.88;;;;;;;17.24;65.78;97272.25;10369194;28;20200;-73
2022/09/21 11:57:18;;;;;;;2.58;1.10;;;;;;;15.96;71.66;97348.00;10352075;28;20350;-73
2022/09/21 12:03:01;;;;;;;1.33;1.20;;;;;;;14.91;76.57;97397.34;10368334;28;20239;-73
2022/09/21 12:08:15;;;;;;;2.05;1.35;;;;;;;14.30;78.39;97404.75;10355172;28;20228;-73
2022/09/21 12:13:40;;;;;;;2.15;1.15;;;;;;;15.08;76.32;97370.94;10351059;28;20332;-73
2022/09/21 12:18:47;;;;;;;1.10;1.00;;;;;;;17.42;67.12;97264.75;10368747;28;20181;-73
2022/09/21 12:23:52;;;;;;;1.77;1.05;;;;;;;18.86;62.30;97231.13;10350562;28;20196;-73
2022/09/21 12:29:02;;;;;;;1.88;1.00;;;;;;;19.97;58.17;97179.53;10351142;28;20196;-73
2022/09/21 12:34:14;;;;;;;1.60;1.15;;;;;;;17.62;65.79;97280.03;10367909;28;20194;-72
2022/09/21 12:39:24;;;;;;;3.45;1.42;;;;;;;19.58;60.54;97229.75;10351058;28;20189;-73
2022/09/21 12:44:33;;;;;;;2.40;1.58;;;;;;;19.87;57.72;97184.44;10367361;28;20213;-73
2022/09/21 12:49:38;;;;;;;2.47;1.30;;;;;;;18.92;64.24;97294.03;10350500;28;20189;-74
2022/09/21 12:54:38;;;;;;;2.67;0.90;;;;;;;21.62;54.94;97191.72;10349845;28;20189;-73
2022/09/21 12:59:55;;;;;;;3.47;1.30;;;;;;;20.20;57.30;97208.38;10370794;28;20236;-73
2022/09/21 13:05:22;;;;;;;2.05;1.00;;;;;;;20.24;52.26;97108.47;10358290;28;20311;-73
2022/09/21 13:10:41;;;;;;;2.97;1.20;;;;;;;18.41;58.85;97188.16;10368633;28;20209;-74
2022/09/21 13:15:44;;;;;;;1.35;0.90;;;;;;;20.60;57.14;97223.47;10375565;28;20201;-73
2022/09/21 13:20:45;;;;;;;1.85;0.90;;;;;;;21.40;52.23;97153.09;10357408;28;20221;-72
2022/09/21 13:25:48;;;;;;;1.45;0.90;;;;;;;18.66;54.79;97122.16;10354099;28;20792;-73
2022/09/21 13:31:15;;;;;;;1.55;1.02;;;;;;;19.76;56.41;97185.81;10349372;28;20192;-73
2022/09/21 13:36:34;;;;;;;1.80;0.98;;;;;;;18.45;59.22;97206.16;10374194;28;20332;-73
2022/09/21 13:41:35;;;;;;;1.23;1.08;;;;;;;18.30;56.92;97153.22;10374438;28;20567;-72
2022/09/21 13:46:36;;;;;;;1.50;1.00;;;;;;;17.59;60.15;97203.59;10356460;28;20221;-72
2022/09/21 13:51:49;;;;;;;2.50;1.17;;;;;;;16.79;61.46;97208.75;10373777;28;20672;-72
2022/09/21 13:57:02;;;;;;;1.45;1.10;;;;;;;15.81;65.48;97252.81;10374212;28;20209;-72
2022/09/21 14:02:17;;;;;;;1.52;1.27;;;;;;;15.27;73.68;97370.56;10355814;28;20256;-73
2022/09/21 14:07:18;;;;;;;1.48;1.15;;;;;;;14.32;81.19;97415.13;10339611;28;20220;-73
2022/09/21 14:12:20;;;;;;;6.25;1.58;;;;;;;13.97;86.63;97380.16;10355188;28;20260;-72
2022/09/21 14:17:36;;;;;;;1.65;1.55;;;;;;;13.64;85.69;97372.97;10355527;28;20603;-72
2022/09/21 14:22:37;;;;;;;2.63;1.90;;;;;;;14.34;84.71;97371.81;10355442;28;20602;-73
2022/09/21 14:27:42;;;;;;;2.33;1.40;;;;;;;14.74;78.26;97324.53;10355386;28;20217;-73
2022/09/21 14:32:46;;;;;;;1.20;1.10;;;;;;;16.58;72.46;97271.16;10338509;28;20193;-73
2022/09/21 14:37:54;;;;;;;4.57;1.30;;;;;;;18.49;63.07;97180.88;10355130;28;20272;-73
2022/09/21 14:42:57;;;;;;;1.85;1.10;;;;;;;18.19;64.12;97206.78;10337852;28;20555;-73
2022/09/21 14:48:08;;;;;;;4.47;1.10;;;;;;;20.61;55.48;97116.78;10371370;28;20270;-74
2022/09/21 14:53:26;;;;;;;1.90;0.70;;;;;;;21.41;51.20;97069.44;10354168;28;20642;-73
2022/09/21 14:58:37;;;;;;;1.33;1.20;;;;;;;18.53;58.80;97160.91;10371954;28;20229;-73
2022/09/21 15:04:15;;;;;;;3.25;1.20;;;;;;;18.27;59.57;97169.53;10353288;28;20216;-73
2022/09/21 15:15:21;;;;;;;2.72;0.95;;;;;;;18.41;58.21;97149.19;10371074;28;20251;-73
2022/09/21 15:20:22;;;;;;;0.98;0.85;;;;;;;18.27;57.55;97147.47;10370376;28;20547;-73
2022/09/21 15:25:25;;;;;;;3.65;1.15;;;;;;;16.21;64.46;97227.84;10369643;28;20221;-72
2022/09/21 15:30:28;;;;;;;1.20;1.10;;;;;;;14.78;71.56;97307.38;10370134;28;20220;-73
2022/09/21 15:35:31;;;;;;;2.05;1.45;;;;;;;14.07;78.15;97367.66;10352515;28;20591;-73
2022/09/21 15:40:35;;;;;;;5.68;1.70;;;;;;;13.69;80.17;97352.28;10352930;28;20194;-73
2022/09/21 15:46:11;;;;;;;3.10;1.30;;;;;;;13.66;82.52;97364.91;10351631;28;20836;-72
2022/09/21 15:51:23;;;;;;;1.30;1.17;;;;;;;13.67;80.03;97332.34;10319332;28;20665;-73
2022/09/21 15:56:26;;;;;;;2.58;1.40;;;;;;;13.41;80.15;97342.97;10369476;28;20201;-73
2022/09/21 16:01:26;;;;;;;3.42;1.40;;;;;;;13.98;78.69;97327.31;10369019;28;20237;-73
2022/09/21 16:06:35;;;;;;;2.88;1.27;;;;;;;14.21;77.94;97322.25;10351226;28;20233;-72
2022/09/21 16:11:36;;;;;;;3.70;1.05;;;;;;;13.69;79.21;97325.94;10369195;28;20240;-72
2022/09/21 16:17:08;;;;;;;2.78;1.08;;;;;;;13.44;81.37;97342.66;10368515;28;20744;-73
2022/09/21 16:22:13;;;;;;;0.80;0.80;;;;;;;13.68;80.27;97332.19;10368764;28;20201;-73
2022/09/21 16:27:16;;;;;;;3.88;1.20;;;;;;;13.67;80.49;97337.63;10368264;28;20681;-73
2022/09/21 16:32:16;;;;;;;2.47;1.10;;;;;;;13.49;78.14;97312.25;10367883;28;20220;-73
2022/09/21 16:37:23;;;;;;;2.72;0.95;;;;;;;13.37;79.05;97327.50;10367614;28;20690;-73
2022/09/21 16:42:26;;;;;;;2.65;1.20;;;;;;;13.09;82.03;97358.41;10367844;28;20285;-73
2022/09/21 16:47:27;;;;;;;2.65;1.30;;;;;;;12.59;84.83;97377.50;10350240;28;20290;-73
2022/09/21 16:52:29;;;;;;;2.92;1.20;;;;;;;12.55;86.49;97381.41;10367400;28;20240;-73
2022/09/21 16:57:31;;;;;;;1.33;1.15;;;;;;;12.40;87.10;97381.09;10367902;28;20280;-72
2022/09/21 17:02:31;;;;;;;1.83;1.20;;;;;;;11.90;87.96;97377.19;10366746;28;20229;-73
2022/09/21 17:07:32;;;;;;;1.52;1.00;;;;;;;11.76;89.83;97387.19;10367790;28;20216;-73
2022/09/21 17:12:32;;;;;;;4.18;1.67;;;;;;;11.31;92.18;97401.06;10366829;28;20192;-72
2022/09/21 17:17:33;;;;;;;4.35;2.08;;;;;;;10.43;100.00;97414.38;10367363;28;20215;-73
2022/09/21 17:22:33;;;;;;;5.35;1.90;;;;;;;10.17;100.00;97411.44;10367114;28;20192;-72
2022/09/21 17:27:34;;;;;;;4.90;1.63;;;;;;;9.09;100.00;97418.13;10367084;28;20324;-72
2022/09/21 17:32:34;;;;;;;2.30;1.40;;;;;;;8.67;100.00;97418.16;10366739;28;20313;-72
2022/09/21 17:37:36;;;;;;;4.07;1.53;;;;;;;8.18;100.00;97433.41;10366578;28;20205;-72
2022/09/21 17:42:39;;;;;;;7.37;2.33;;;;;;;8.21;100.00;97439.19;10366791;28;20268;-72
2022/09/21 17:47:40;;;;;;;7.73;1.90;;;;;;;7.97;100.00;97433.31;10378702;28;20221;-72
2022/09/21 17:58:13;;;;;;;5.17;2.37;;;;;;;7.32;100.00;97449.63;10359010;28;20197;-73
2022/09/21 18:03:22;;;;;;;10.47;2.13;;;;;;;7.43;100.00;97467.03;10356063;28;20692;-73
2022/09/21 18:08:25;;;;;;;7.20;3.33;;;;;;;7.37;100.00;97472.72;10373988;28;20697;-73
2022/09/21 18:13:34;;;;;;;6.23;3.80;;;;;;;7.14;100.00;97488.31;10372602;28;20185;-73
2022/09/21 18:19:18;;;;;;;6.47;3.63;;;;;;;7.09;100.00;97490.47;10373489;28;20188;-73
2022/09/21 18:24:20;;;;;;;6.17;3.63;;;;;;;6.99;100.00;97489.47;10372828;28;20583;-73
2022/09/21 18:29:32;;;;;;;4.47;3.67;;;;;;;6.87;100.00;97501.63;10373249;28;20205;-73
2022/09/21 18:34:56;;;;;;;3.50;3.10;;;;;;;6.85;100.00;97507.94;10372305;28;20717;-73
2022/09/21 18:40:20;;;;;;;7.70;3.50;;;;;;;6.72;100.00;97511.44;10355257;28;20193;-73
2022/09/21 18:45:24;;;;;;;4.97;3.63;;;;;;;6.71;100.00;97509.75;10372250;28;20296;-73
2022/09/21 18:50:39;;;;;;;6.77;3.27;;;;;;;6.71;100.00;97516.75;10354448;28;20276;-73
2022/09/21 18:55:40;;;;;;;3.53;3.07;;;;;;;6.61;100.00;97513.97;10354379;28;20274;-73
2022/09/21 19:00:40;;;;;;;5.47;2.97;;;;;;;6.47;100.00;97525.38;10371182;28;20811;-73
2022/09/21 19:05:51;;;;;;;5.80;3.07;;;;;;;6.46;100.00;97518.50;10371255;28;20220;-73
2022/09/21 19:11:04;;;;;;;7.73;4.23;;;;;;;6.36;100.00;97517.53;10353624;28;20721;-73
2022/09/21 19:16:24;;;;;;;5.20;3.50;;;;;;;6.29;100.00;97519.72;10370677;28;20338;-73
2022/09/21 19:21:36;;;;;;;3.63;2.93;;;;;;;6.21;100.00;97516.84;10353253;28;20205;-73
2022/09/21 19:26:49;;;;;;;5.50;3.33;;;;;;;6.04;100.00;97515.44;10312086;28;21007;-74
2022/09/21 19:31:50;;;;;;;7.67;4.17;;;;;;;5.95;100.00;97522.09;10312629;28;20249;-73
2022/09/21 19:36:50;;;;;;;6.30;3.37;;;;;;;5.90;100.00;97525.00;10329490;28;20260;-73
2022/09/21 19:42:02;;;;;;;9.40;4.03;;;;;;;5.81;100.00;97523.06;10329908;28;20189;-72
2022/09/21 19:47:22;;;;;;;7.23;4.20;;;;;;;5.77;100.00;97524.19;10328862;28;20230;-72
2022/09/21 19:52:33;;;;;;;7.43;3.47;;;;;;;5.67;100.00;97515.38;10311628;28;20201;-73
2022/09/21 20:03:31;;;;;;;5.63;3.90;;;;;;;5.59;100.00;97521.13;10320076;28;20242;-73
2022/09/21 20:08:32;;;;;;;6.40;3.90;;;;;;;5.44;100.00;97522.16;10307969;28;20718;-73
2022/09/21 20:14:03;;;;;;;7.13;3.67;;;;;;;5.39;100.00;97517.28;10328269;28;20220;-73
2022/09/21 20:19:25;;;;;;;10.30;3.77;;;;;;;5.29;100.00;97516.22;10328483;28;20782;-73
2022/09/21 20:24:32;;;;;;;4.57;3.47;;;;;;;5.26;100.00;97519.84;10327724;28;20312;-73
2022/09/21 20:29:32;;;;;;;6.67;3.77;;;;;;;5.19;100.00;97518.59;10310482;28;20565;-73
2022/09/21 20:34:33;;;;;;;4.27;3.43;;;;;;;5.18;100.00;97525.56;10327540;28;20205;-71
2022/09/21 20:39:33;;;;;;;5.23;3.60;;;;;;;5.11;100.00;97523.47;10310397;28;20701;-73
2022/09/21 20:44:33;;;;;;;5.47;3.83;;;;;;;5.08;100.00;97527.09;10327204;28;20691;-73
2022/09/21 20:49:34;;;;;;;4.60;3.30;;;;;;;5.10;100.00;97525.25;10327739;28;20575;-73
2022/09/21 20:54:35;;;;;;;5.23;3.33;;;;;;;5.07;100.00;97530.66;10327493;28;20540;-73
2022/09/21 20:59:35;;;;;;;5.17;3.00;;;;;;;5.10;100.00;97529.59;10327609;28;20613;-72
2022/09/21 21:04:35;;;;;;;3.43;2.73;;;;;;;5.03;100.00;97524.00;10327203;28;20326;-73
2022/09/21 21:09:36;;;;;;;5.83;3.60;;;;;;;5.04;100.00;97519.63;10327369;28;20216;-73
2022/09/21 21:14:36;;;;;;;7.13;4.03;;;;;;;4.99;100.00;97525.13;10326494;28;20186;-73
2022/09/21 21:19:36;;;;;;;5.17;3.70;;;;;;;4.94;100.00;97516.81;10327121;28;20190;-73
2022/09/21 21:24:40;;;;;;;3.67;3.00;;;;;;;4.96;100.00;97518.38;10334223;28;20360;-73
2022/09/21 21:29:51;;;;;;;5.60;3.67;;;;;;;4.96;100.00;97523.56;10334511;28;20685;-72
2022/09/21 21:34:52;;;;;;;6.97;4.30;;;;;;;4.99;100.00;97514.72;10334403;28;20218;-73
2022/09/21 21:39:53;;;;;;;3.83;3.10;;;;;;;4.96;100.00;97502.81;10334686;28;20260;-73
2022/09/21 21:44:53;;;;;;;5.03;4.00;;;;;;;4.94;100.00;97504.66;10333884;28;20705;-73
2022/09/21 21:49:53;;;;;;;5.70;3.67;;;;;;;4.91;100.00;97504.03;10333937;28;20198;-72
2022/09/21 21:54:54;;;;;;;5.87;3.30;;;;;;;4.89;100.00;97506.72;10333592;28;20265;-73
2022/09/21 21:59:54;;;;;;;6.67;3.33;;;;;;;4.86;100.00;97501.75;10334074;28;20702;-73
2022/09/21 22:04:54;;;;;;;3.83;3.03;;;;;;;4.90;100.00;97498.03;10332902;28;20222;-72
2022/09/21 22:09:55;;;;;;;10.00;3.60;;;;;;;4.91;100.00;97488.47;10333664;28;20268;-72
2022/09/21 22:14:55;;;;;;;4.30;3.47;;;;;;;4.85;100.00;97494.06;10333318;28;20253;-73
2022/09/21 22:19:56;;;;;;;5.60;4.13;;;;;;;4.91;100.00;97484.09;10332747;28;20194;-72
2022/09/21 22:24:56;;;;;;;4.97;3.40;;;;;;;5.04;100.00;97493.66;10332853;28;20268;-72
2022/09/21 22:29:56;;;;;;;5.00;2.90;;;;;;;5.04;100.00;97484.13;10331983;28;20285;-72
2022/09/21 22:34:57;;;;;;;6.23;3.17;;;;;;;5.09;100.00;97474.25;10331888;28;20674;-72
2022/09/21 22:39:58;;;;;;;5.50;3.27;;;;;;;5.09;100.00;97470.81;10331861;28;20733;-73
2022/09/21 22:44:58;;;;;;;6.97;3.10;;;;;;;5.10;100.00;97475.91;10331490;28;20582;-73
2022/09/21 22:49:58;;;;;;;4.63;3.20;;;;;;;5.15;100.00;97466.03;10331484;28;20204;-73
2022/09/21 22:54:59;;;;;;;4.17;3.10;;;;;;;5.20;100.00;97464.91;10331529;28;20198;-73
2022/09/21 22:59:59;;;;;;;3.37;2.80;;;;;;;5.24;100.00;97469.78;10331364;28;20337;-72
2022/09/21 23:05:00;;;;;;;3.40;3.00;;;;;;;5.30;100.00;97466.75;10331232;28;20233;-73
2022/09/21 23:10:00;;;;;;;5.33;3.20;;;;;;;5.35;100.00;97467.28;10330750;28;20189;-73
2022/09/21 23:15:00;;;;;;;4.50;2.87;;;;;;;5.45;100.00;97461.44;10330680;28;20196;-73
2022/09/21 23:20:01;;;;;;;2.87;2.67;;;;;;;5.44;100.00;97460.63;10330398;28;20201;-73
2022/09/21 23:25:02;;;;;;;4.00;2.60;;;;;;;5.49;100.00;97455.91;10330248;28;20232;-73
2022/09/21 23:30:03;;;;;;;4.47;3.00;;;;;;;5.54;100.00;97466.84;10329931;28;20280;-73
2022/09/21 23:35:03;;;;;;;6.90;3.13;;;;;;;5.64;100.00;97463.59;10329733;28;20336;-73
2022/09/21 23:40:04;;;;;;;5.37;3.77;;;;;;;5.58;100.00;97451.88;10329609;28;20241;-72
2022/09/21 23:45:05;;;;;;;5.40;3.20;;;;;;;5.68;100.00;97450.28;10327743;28;20389;-73
2022/09/21 23:50:06;;;;;;;3.20;2.90;;;;;;;5.67;100.00;97451.22;10329066;28;20201;-73
2022/09/21 23:55:07;;;;;;;4.70;2.83;;;;;;;5.68;100.00;97447.69;10329085;28;20194;-72
